Time;durP1;ratioP1;P1;durP2;ratioP2;P2;SDS_P1;SDS_P2;PMS_P1;PMS_P2;Temp;Humidity;BMP_temperature;BMP_pressure;BME280_temperature;BME280_humidity;BME280_pressure;Samples;Min_cycle;Max_cycle;Signal;HPM_P1;HPM_P2
2022/03/31 00:02:10;;;;;;;15.43;11.27;;;6.80;99.90;;;;;;2612601;54;20410;-79
2022/03/31 00:04:38;;;;;;;17.50;12.10;;;6.80;99.90;;;;;;2612503;39;21025;-80
2022/03/31 00:07:05;;;;;;;16.30;12.77;;;6.80;99.90;;;;;;2612917;54;20991;-81
2022/03/31 00:09:31;;;;;;;13.43;10.97;;;6.80;99.90;;;;;;2612108;47;20421;-79
2022/03/31 00:12:00;;;;;;;20.50;12.23;;;6.90;99.90;;;;;;2611324;47;20413;-79
2022/03/31 00:14:26;;;;;;;13.67;10.53;;;6.80;99.90;;;;;;2611397;54;20493;-79
2022/03/31 00:16:53;;;;;;;14.50;11.30;;;6.80;99.90;;;;;;2612137;54;20920;-78
2022/03/31 00:19:20;;;;;;;20.07;12.57;;;6.80;99.90;;;;;;2613514;39;20736;-80
2022/03/31 00:21:45;;;;;;;13.77;12.13;;;6.70;99.90;;;;;;2611832;54;20409;-78
2022/03/31 00:24:11;;;;;;;17.07;11.80;;;6.80;99.90;;;;;;2612598;54;20405;-80
2022/03/31 00:26:37;;;;;;;26.37;13.07;;;6.80;99.90;;;;;;2612459;47;20250;-78
2022/03/31 00:29:04;;;;;;;14.07;11.00;;;6.70;99.90;;;;;;2610773;54;20167;-79
2022/03/31 00:31:30;;;;;;;19.93;11.47;;;6.80;99.90;;;;;;2612381;54;20425;-79
2022/03/31 00:33:56;;;;;;;18.40;10.97;;;6.70;99.90;;;;;;2612038;54;20517;-78
2022/03/31 00:36:21;;;;;;;21.90;12.93;;;6.70;99.90;;;;;;2611817;54;20195;-80
2022/03/31 00:41:38;;;;;;;14.97;11.50;;;6.60;99.90;;;;;;2611380;54;20155;-80
2022/03/31 00:44:06;;;;;;;21.80;13.80;;;6.60;99.90;;;;;;2612609;54;20408;-80
2022/03/31 00:46:32;;;;;;;15.63;11.33;;;;;;;;;;2610339;54;20392;-80
2022/03/31 00:48:58;;;;;;;19.23;12.63;;;6.50;99.90;;;;;;2611500;47;20581;-81
2022/03/31 00:51:25;;;;;;;19.00;12.70;;;6.50;99.90;;;;;;2612319;54;20431;-78
2022/03/31 00:53:51;;;;;;;18.57;13.17;;;6.50;99.90;;;;;;2612410;54;20399;-81
2022/03/31 00:56:18;;;;;;;21.47;13.10;;;6.50;99.90;;;;;;2612878;54;20384;-80
2022/03/31 00:58:45;;;;;;;19.67;14.87;;;6.40;99.90;;;;;;2611901;54;20409;-81
2022/03/31 01:01:14;;;;;;;14.47;11.07;;;;;;;;;;2611416;54;20451;-79
2022/03/31 01:03:40;;;;;;;18.93;13.83;;;6.40;99.90;;;;;;2610151;54;20423;-79
2022/03/31 01:06:06;;;;;;;16.70;12.97;;;6.50;99.90;;;;;;2610883;47;20473;-79
2022/03/31 01:08:33;;;;;;;25.90;13.20;;;;;;;;;;2612951;54;20508;-80
2022/03/31 01:10:59;;;;;;;19.47;14.30;;;;;;;;;;2611727;54;20960;-80
2022/03/31 01:13:25;;;;;;;17.60;14.67;;;6.20;99.90;;;;;;2611314;54;20407;-80
2022/03/31 01:15:51;;;;;;;38.00;15.87;;;;;;;;;;2611614;54;20431;-80
2022/03/31 01:18:18;;;;;;;29.10;14.90;;;;;;;;;;2612087;54;20422;-83
2022/03/31 01:20:43;;;;;;;19.73;14.57;;;6.10;99.90;;;;;;2612117;54;20379;-81
2022/03/31 01:23:14;;;;;;;16.77;13.10;;;;;;;;;;2609975;54;20398;-79
2022/03/31 01:25:40;;;;;;;19.77;14.33;;;6.20;99.90;;;;;;2610747;50;20158;-79
2022/03/31 01:28:06;;;;;;;21.20;15.00;;;6.20;99.90;;;;;;2611910;54;20515;-80
2022/03/31 01:30:32;;;;;;;30.93;14.60;;;6.10;99.90;;;;;;2611654;47;20454;-79
2022/03/31 01:32:58;;;;;;;17.80;13.97;;;6.10;99.90;;;;;;2611968;54;20415;-79
2022/03/31 01:35:24;;;;;;;26.70;15.93;;;6.10;99.90;;;;;;2611962;54;20826;-77
2022/03/31 01:37:50;;;;;;;23.13;14.07;;;5.80;99.90;;;;;;2611366;54;20814;-77
2022/03/31 01:40:18;;;;;;;20.63;14.73;;;6.00;99.90;;;;;;2610181;54;20390;-79
2022/03/31 01:42:45;;;;;;;25.00;16.63;;;6.00;99.90;;;;;;2610675;54;20408;-79
2022/03/31 01:45:17;;;;;;;19.67;14.13;;;6.00;99.90;;;;;;2610868;47;20407;-78
2022/03/31 01:47:44;;;;;;;21.63;15.03;;;6.10;99.90;;;;;;2612202;54;20487;-79
2022/03/31 01:50:11;;;;;;;30.70;18.03;;;6.20;99.90;;;;;;2610519;39;20919;-80
2022/03/31 01:52:41;;;;;;;25.93;14.37;;;6.30;99.90;;;;;;2611842;54;20396;-79
2022/03/31 01:55:08;;;;;;;27.80;16.50;;;6.30;99.90;;;;;;2610758;54;20442;-81
2022/03/31 01:57:34;;;;;;;25.60;18.43;;;6.20;99.90;;;;;;2610620;47;20992;-80
2022/03/31 02:00:02;;;;;;;25.67;16.60;;;6.20;99.90;;;;;;2611194;54;20415;-78
2022/03/31 02:02:39;;;;;;;22.07;15.90;;;6.30;99.90;;;;;;2609305;54;20512;-79
2022/03/31 02:05:06;;;;;;;25.73;16.23;;;6.20;99.90;;;;;;2611470;54;20379;-79
2022/03/31 02:07:32;;;;;;;22.20;16.67;;;6.20;99.90;;;;;;2612589;54;20405;-79
2022/03/31 02:09:58;;;;;;;18.73;15.43;;;6.10;99.90;;;;;;2613331;54;20418;-80
2022/03/31 02:12:24;;;;;;;25.43;16.60;;;6.10;99.90;;;;;;2612885;54;20413;-78
2022/03/31 02:14:50;;;;;;;24.57;16.43;;;6.10;99.90;;;;;;2612807;54;20440;-81
2022/03/31 02:17:16;;;;;;;24.53;18.20;;;6.20;99.90;;;;;;2612236;54;20160;-80
2022/03/31 02:19:42;;;;;;;25.03;16.97;;;6.20;99.90;;;;;;2611688;31;20627;-80
2022/03/31 02:22:08;;;;;;;28.87;18.10;;;6.20;99.90;;;;;;2611796;52;20426;-80
2022/03/31 02:24:35;;;;;;;19.60;15.30;;;6.30;99.90;;;;;;2612494;46;20422;-78
2022/03/31 02:27:01;;;;;;;24.13;17.37;;;6.10;99.90;;;;;;2611981;47;20423;-79
2022/03/31 02:29:28;;;;;;;22.80;17.07;;;6.20;99.90;;;;;;2613417;49;20494;-80
2022/03/31 02:31:54;;;;;;;17.40;14.03;;;6.10;99.90;;;;;;2612597;47;20607;-77
2022/03/31 02:34:20;;;;;;;25.07;17.70;;;6.10;99.90;;;;;;2611358;49;20427;-78
2022/03/31 02:36:46;;;;;;;21.60;15.53;;;5.90;99.90;;;;;;2610202;51;20610;-78
2022/03/31 02:39:12;;;;;;;25.87;16.43;;;5.90;99.90;;;;;;2612178;54;20395;-78
2022/03/31 02:41:38;;;;;;;22.20;16.00;;;5.90;99.90;;;;;;2612166;54;20417;-80
2022/03/31 02:44:06;;;;;;;25.20;16.90;;;6.00;99.90;;;;;;2611305;54;20439;-78
2022/03/31 02:46:32;;;;;;;24.70;16.10;;;6.00;99.90;;;;;;2613549;54;20424;-80
2022/03/31 02:48:59;;;;;;;23.30;18.43;;;6.00;99.90;;;;;;2611343;47;20412;-78
2022/03/31 02:51:25;;;;;;;25.63;15.23;;;5.90;99.90;;;;;;2613231;54;20396;-79
2022/03/31 02:56:40;;;;;;;21.57;14.83;;;5.80;99.90;;;;;;2613366;39;20776;-80
2022/03/31 02:59:09;;;;;;;29.37;17.10;;;5.80;99.90;;;;;;2612044;54;20429;-82
2022/03/31 03:01:35;;;;;;;22.40;15.97;;;5.70;99.90;;;;;;2611907;54;20406;-80
2022/03/31 03:04:01;;;;;;;24.03;16.80;;;5.60;99.90;;;;;;2612150;54;20411;-80
2022/03/31 03:06:27;;;;;;;26.93;15.77;;;5.60;99.90;;;;;;2611698;54;20392;-80
2022/03/31 03:08:54;;;;;;;21.70;16.23;;;5.60;99.90;;;;;;2612203;54;20147;-79
2022/03/31 03:11:20;;;;;;;21.70;16.63;;;5.70;99.90;;;;;;2611331;47;20412;-78
2022/03/31 03:13:47;;;;;;;21.00;16.37;;;5.80;99.90;;;;;;2611810;39;20758;-79
2022/03/31 03:16:13;;;;;;;27.03;18.10;;;5.80;99.90;;;;;;2611267;54;20439;-79
2022/03/31 03:18:40;;;;;;;26.07;16.60;;;5.80;99.90;;;;;;2613058;54;20416;-80
2022/03/31 03:21:07;;;;;;;24.00;16.93;;;5.90;99.90;;;;;;2612784;54;20431;-79
2022/03/31 03:23:37;;;;;;;20.73;15.43;;;6.00;99.90;;;;;;2612911;54;20416;-78
2022/03/31 03:26:04;;;;;;;21.63;16.77;;;5.90;99.90;;;;;;2612755;54;20378;-80
2022/03/31 03:28:31;;;;;;;22.07;16.97;;;5.90;99.90;;;;;;2610874;54;20382;-78
2022/03/31 03:30:57;;;;;;;23.77;17.23;;;5.90;99.90;;;;;;2611855;47;20424;-79
2022/03/31 03:33:23;;;;;;;23.00;16.10;;;5.80;99.90;;;;;;2611541;54;20403;-79
2022/03/31 03:35:49;;;;;;;22.87;17.53;;;5.70;99.90;;;;;;2611377;54;22657;-78
2022/03/31 03:38:16;;;;;;;27.73;16.10;;;5.80;99.90;;;;;;2613640;54;20420;-79
2022/03/31 03:40:43;;;;;;;27.33;20.30;;;5.80;99.90;;;;;;2612311;39;20774;-80
2022/03/31 03:43:09;;;;;;;26.70;18.00;;;5.80;99.90;;;;;;2613294;54;20412;-79
2022/03/31 03:45:36;;;;;;;26.70;18.00;;;5.80;99.90;;;;;;2612421;54;20475;-80
2022/03/31 03:48:03;;;;;;;26.70;17.43;;;5.80;99.90;;;;;;2611169;54;20447;-77
2022/03/31 03:50:29;;;;;;;19.53;15.50;;;5.80;99.90;;;;;;2613136;54;20384;-79
2022/03/31 03:52:55;;;;;;;21.73;15.87;;;5.90;99.90;;;;;;2612671;47;21036;-78
2022/03/31 03:55:23;;;;;;;24.70;17.17;;;6.00;99.90;;;;;;2613215;51;20162;-79
2022/03/31 03:57:48;;;;;;;23.23;16.50;;;6.00;99.90;;;;;;2611225;47;20287;-80
2022/03/31 04:00:15;;;;;;;26.47;17.90;;;6.00;99.90;;;;;;2610932;47;20410;-77
2022/03/31 04:02:41;;;;;;;22.87;15.33;;;6.10;99.90;;;;;;2613015;54;20330;-79
2022/03/31 04:05:07;;;;;;;20.53;16.83;;;6.10;99.90;;;;;;2612932;54;20944;-79
2022/03/31 04:07:33;;;;;;;22.57;17.27;;;6.10;99.90;;;;;;2612662;39;20819;-79
2022/03/31 04:09:59;;;;;;;21.97;14.80;;;6.10;99.90;;;;;;2613092;54;20500;-77
2022/03/31 04:12:25;;;;;;;31.17;17.70;;;6.00;99.90;;;;;;2611239;49;20739;-78
2022/03/31 04:14:50;;;;;;;21.13;15.90;;;6.00;99.90;;;;;;2611215;54;20188;-78
2022/03/31 04:17:16;;;;;;;22.43;16.40;;;6.00;99.90;;;;;;2611480;54;20178;-80
2022/03/31 04:19:45;;;;;;;26.03;17.27;;;6.00;99.90;;;;;;2610838;54;20159;-79
2022/03/31 04:22:11;;;;;;;23.17;16.17;;;6.00;99.90;;;;;;2613265;39;20558;-76
2022/03/31 04:24:36;;;;;;;30.17;17.50;;;6.00;99.90;;;;;;2612687;54;20416;-79
2022/03/31 04:27:03;;;;;;;26.37;16.37;;;6.00;99.90;;;;;;2611859;54;20148;-80
2022/03/31 04:29:28;;;;;;;23.07;15.20;;;6.20;99.90;;;;;;2612604;54;20168;-79
2022/03/31 04:31:54;;;;;;;27.53;17.30;;;6.20;99.90;;;;;;2612155;54;20998;-77
2022/03/31 04:34:21;;;;;;;25.97;16.93;;;6.20;99.90;;;;;;2611948;31;20601;-80
2022/03/31 04:36:47;;;;;;;21.13;14.90;;;6.20;99.90;;;;;;2611573;31;20688;-80
2022/03/31 04:39:14;;;;;;;19.90;14.90;;;6.10;99.90;;;;;;2611544;54;20401;-80
2022/03/31 04:41:40;;;;;;;23.63;17.17;;;6.20;99.90;;;;;;2613005;54;20156;-79
2022/03/31 04:44:06;;;;;;;24.03;16.50;;;6.00;99.90;;;;;;2612980;54;20577;-80
2022/03/31 04:46:33;;;;;;;27.40;17.27;;;6.20;99.90;;;;;;2612807;54;20518;-78
2022/03/31 04:49:00;;;;;;;25.20;16.97;;;6.20;99.90;;;;;;2612457;54;20912;-80
2022/03/31 04:51:26;;;;;;;23.93;14.93;;;6.30;99.90;;;;;;2610076;54;20434;-80
2022/03/31 04:53:52;;;;;;;21.67;15.57;;;6.30;99.90;;;;;;2612520;54;20406;-78
2022/03/31 04:56:18;;;;;;;16.63;14.30;;;6.20;99.90;;;;;;2610865;39;21259;-78
2022/03/31 04:58:44;;;;;;;21.10;15.17;;;6.30;99.90;;;;;;2612375;54;20411;-79
2022/03/31 05:01:11;;;;;;;29.23;16.37;;;6.30;99.90;;;;;;2612133;54;20425;-78
2022/03/31 05:03:40;;;;;;;26.60;14.87;;;6.40;99.90;;;;;;2612340;47;20960;-81
2022/03/31 05:06:07;;;;;;;20.40;15.60;;;6.40;99.90;;;;;;2612310;54;21011;-80
2022/03/31 05:08:33;;;;;;;20.73;13.93;;;6.40;99.90;;;;;;2611988;39;20788;-78
2022/03/31 05:10:59;;;;;;;23.37;14.17;;;6.30;99.90;;;;;;2613034;54;20976;-81
2022/03/31 05:13:25;;;;;;;25.10;15.97;;;6.40;99.90;;;;;;2610776;54;20511;-77
2022/03/31 05:15:51;;;;;;;21.60;14.93;;;6.40;99.90;;;;;;2611955;54;20292;-79
2022/03/31 05:18:17;;;;;;;25.43;14.47;;;6.30;99.90;;;;;;2611078;47;20451;-79
2022/03/31 05:20:43;;;;;;;22.07;14.73;;;6.30;99.90;;;;;;2612287;54;20968;-81
2022/03/31 05:23:12;;;;;;;21.80;14.03;;;6.30;99.90;;;;;;2611134;54;21165;-81
2022/03/31 05:25:39;;;;;;;27.93;15.27;;;6.30;99.90;;;;;;2611952;54;20554;-79
2022/03/31 05:28:05;;;;;;;25.77;14.43;;;6.20;99.90;;;;;;2611731;51;20429;-79
2022/03/31 05:30:32;;;;;;;22.63;14.30;;;6.30;99.90;;;;;;2613020;46;20433;-79
2022/03/31 05:32:59;;;;;;;20.97;14.43;;;6.40;99.90;;;;;;2611958;47;20391;-78
2022/03/31 05:35:27;;;;;;;19.00;13.90;;;6.20;99.90;;;;;;2610969;54;20419;-79
2022/03/31 05:37:53;;;;;;;25.43;15.50;;;6.10;99.90;;;;;;2611386;54;20418;-80
2022/03/31 05:40:19;;;;;;;26.03;14.27;;;6.20;99.90;;;;;;2611359;54;20394;-79
2022/03/31 05:42:45;;;;;;;19.77;13.83;;;6.20;99.90;;;;;;2612669;54;20400;-79
2022/03/31 05:45:12;;;;;;;20.30;12.90;;;6.30;99.90;;;;;;2611704;54;20444;-79
2022/03/31 05:47:40;;;;;;;27.87;16.03;;;6.20;99.90;;;;;;2612988;54;20439;-78
2022/03/31 05:50:08;;;;;;;18.87;14.30;;;6.20;99.90;;;;;;2611573;47;20504;-77
2022/03/31 05:52:38;;;;;;;25.53;15.47;;;6.20;99.90;;;;;;2610511;54;20420;-80
2022/03/31 05:55:06;;;;;;;24.07;15.53;;;6.20;99.90;;;;;;2609906;54;20499;-80
2022/03/31 05:57:34;;;;;;;28.23;15.17;;;6.40;99.90;;;;;;2612128;54;20487;-81
2022/03/31 06:00:00;;;;;;;24.23;15.67;;;6.40;99.90;;;;;;2611971;54;20968;-80
2022/03/31 06:02:25;;;;;;;21.17;16.20;;;6.40;99.90;;;;;;2613436;51;20444;-81
2022/03/31 06:04:53;;;;;;;31.27;16.13;;;6.30;99.90;;;;;;2612852;54;20699;-81
2022/03/31 06:07:19;;;;;;;21.00;14.27;;;6.30;99.90;;;;;;2610890;54;20543;-77
2022/03/31 06:09:44;;;;;;;21.57;15.63;;;6.30;99.90;;;;;;2611538;46;21169;-77
2022/03/31 06:12:10;;;;;;;26.63;16.07;;;6.40;99.90;;;;;;2610672;39;20605;-79
2022/03/31 06:14:36;;;;;;;30.73;16.20;;;6.30;99.90;;;;;;2610663;54;20703;-80
2022/03/31 06:17:02;;;;;;;18.40;14.47;;;6.30;99.90;;;;;;2611601;54;20166;-79
2022/03/31 06:19:27;;;;;;;23.73;14.77;;;6.30;99.90;;;;;;2614370;54;20148;-80
2022/03/31 06:21:53;;;;;;;25.40;15.80;;;6.30;99.90;;;;;;2614463;54;20197;-76
2022/03/31 06:24:19;;;;;;;25.43;15.33;;;6.30;99.90;;;;;;2612468;54;20157;-79
2022/03/31 06:26:46;;;;;;;21.10;13.13;;;6.20;99.90;;;;;;2613646;54;20256;-78
2022/03/31 06:29:13;;;;;;;23.30;14.37;;;6.20;99.90;;;;;;2611697;54;20283;-79
2022/03/31 06:31:39;;;;;;;26.90;15.20;;;6.20;99.90;;;;;;2614366;54;20456;-81
2022/03/31 06:34:05;;;;;;;23.17;14.93;;;6.20;99.90;;;;;;2617697;47;20428;-77
2022/03/31 06:36:31;;;;;;;23.87;15.10;;;6.30;99.90;;;;;;2617781;54;20438;-76
2022/03/31 06:38:58;;;;;;;24.10;16.60;;;6.20;99.90;;;;;;2616855;54;20411;-77
2022/03/31 06:41:24;;;;;;;25.60;15.40;;;6.30;99.90;;;;;;2616328;54;20395;-77
2022/03/31 06:43:50;;;;;;;25.30;15.50;;;6.30;99.90;;;;;;2614170;54;20431;-79
2022/03/31 06:46:16;;;;;;;34.23;17.53;;;6.40;99.90;;;;;;2611611;54;20167;-77
2022/03/31 06:48:48;;;;;;;21.87;14.20;;;6.30;99.90;;;;;;2611382;46;20901;-78
2022/03/31 06:51:16;;;;;;;20.37;13.77;;;6.30;99.90;;;;;;2611937;49;20487;-81
2022/03/31 06:53:43;;;;;;;19.07;14.87;;;6.30;99.90;;;;;;2612340;54;21008;-78
2022/03/31 06:56:13;;;;;;;23.20;14.60;;;6.40;99.90;;;;;;2610730;54;20989;-78
2022/03/31 06:58:39;;;;;;;21.37;14.50;;;6.40;99.90;;;;;;2607336;47;20417;-77
2022/03/31 07:01:05;;;;;;;23.23;16.67;;;6.50;99.90;;;;;;2607178;47;20981;-79
2022/03/31 07:03:31;;;;;;;25.50;14.60;;;6.70;99.90;;;;;;2609864;46;20401;-79
2022/03/31 07:05:57;;;;;;;23.70;15.73;;;6.70;99.90;;;;;;2608849;54;20595;-78
2022/03/31 07:08:23;;;;;;;24.57;15.10;;;6.60;99.90;;;;;;2608372;47;20977;-77
2022/03/31 07:10:50;;;;;;;21.80;15.50;;;6.50;99.90;;;;;;2609622;54;20430;-78
2022/03/31 07:13:16;;;;;;;22.40;15.80;;;6.40;99.90;;;;;;2609916;54;20391;-78
2022/03/31 07:15:43;;;;;;;28.77;17.03;;;6.40;99.90;;;;;;2610653;54;20492;-80
2022/03/31 07:18:09;;;;;;;23.47;15.20;;;6.40;99.90;;;;;;2610749;54;20408;-79
2022/03/31 07:20:36;;;;;;;28.33;16.40;;;6.50;99.90;;;;;;2611195;54;20447;-79
2022/03/31 07:23:02;;;;;;;26.30;16.10;;;6.50;99.90;;;;;;2610374;54;20171;-78
2022/03/31 07:25:28;;;;;;;29.10;16.90;;;6.40;99.90;;;;;;2628116;36;20532;-80
2022/03/31 07:27:55;;;;;;;26.67;16.60;;;6.50;99.90;;;;;;2609634;54;20395;-79
2022/03/31 07:30:22;;;;;;;26.70;17.53;;;6.40;99.90;;;;;;2613928;39;20872;-80
2022/03/31 07:32:55;;;;;;;25.57;16.40;;;6.40;99.90;;;;;;2612200;54;20515;-78
2022/03/31 07:35:24;;;;;;;25.40;16.97;;;6.40;99.90;;;;;;2611253;54;20447;-80
2022/03/31 07:37:51;;;;;;;28.73;18.33;;;6.40;99.90;;;;;;2611297;54;20421;-77
2022/03/31 07:40:18;;;;;;;31.03;17.90;;;6.50;99.90;;;;;;2611555;54;20563;-78
2022/03/31 07:42:45;;;;;;;35.43;18.97;;;6.40;99.90;;;;;;2610368;31;20853;-78
2022/03/31 07:45:14;;;;;;;23.30;17.60;;;6.40;99.90;;;;;;2609568;54;20491;-78
2022/03/31 07:47:41;;;;;;;28.87;17.53;;;6.50;99.90;;;;;;2610722;47;20264;-80
2022/03/31 07:50:09;;;;;;;29.27;20.10;;;6.40;99.90;;;;;;2611579;54;20401;-79
2022/03/31 07:52:36;;;;;;;28.27;18.53;;;6.60;99.90;;;;;;2611179;54;20508;-80
2022/03/31 07:55:04;;;;;;;27.10;18.87;;;6.60;99.90;;;;;;2612741;39;20767;-78
2022/03/31 07:57:30;;;;;;;32.50;19.73;;;6.50;99.90;;;;;;2610780;39;20971;-78
2022/03/31 07:59:57;;;;;;;23.87;17.07;;;6.50;99.90;;;;;;2610821;39;20859;-79
2022/03/31 08:02:25;;;;;;;28.17;18.40;;;6.60;99.90;;;;;;2609007;54;20404;-77
2022/03/31 08:04:52;;;;;;;31.50;19.40;;;6.70;99.90;;;;;;2610523;54;20412;-79
2022/03/31 08:07:18;;;;;;;25.57;19.20;;;6.70;99.90;;;;;;2611707;54;20498;-79
2022/03/31 08:09:44;;;;;;;25.33;19.20;;;6.70;99.90;;;;;;2610022;51;20429;-78
2022/03/31 08:12:10;;;;;;;27.20;18.63;;;6.80;99.90;;;;;;2610473;39;20938;-78
2022/03/31 08:14:36;;;;;;;28.50;18.80;;;6.90;99.90;;;;;;2608921;47;20515;-77
2022/03/31 08:17:02;;;;;;;25.70;18.03;;;7.00;99.90;;;;;;2609826;54;20383;-78
2022/03/31 08:19:30;;;;;;;26.10;17.43;;;7.00;99.90;;;;;;2609959;54;20405;-77
2022/03/31 08:21:56;;;;;;;25.90;17.37;;;7.10;99.90;;;;;;2610440;54;20981;-77
2022/03/31 08:24:23;;;;;;;22.03;16.50;;;7.10;99.90;;;;;;2610847;54;21423;-77
2022/03/31 08:26:50;;;;;;;21.27;14.00;;;7.10;99.90;;;;;;2609205;39;20511;-78
2022/03/31 08:29:16;;;;;;;19.53;14.10;;;7.00;99.90;;;;;;2609511;48;20997;-77
2022/03/31 08:31:43;;;;;;;21.30;14.40;;;6.90;99.90;;;;;;2609520;54;20459;-77
2022/03/31 08:34:10;;;;;;;24.00;15.83;;;7.10;99.90;;;;;;2611321;54;20979;-79
2022/03/31 08:36:36;;;;;;;23.10;15.67;;;7.10;99.90;;;;;;2609935;54;20389;-78
2022/03/31 08:39:06;;;;;;;20.87;14.17;;;7.00;99.90;;;;;;2609906;54;20424;-78
2022/03/31 08:41:32;;;;;;;24.40;15.77;;;7.20;99.90;;;;;;2610634;54;20417;-78
2022/03/31 08:43:58;;;;;;;22.10;15.30;;;7.30;99.90;;;;;;2608758;54;20485;-79
2022/03/31 08:46:31;;;;;;;20.17;14.50;;;7.10;99.90;;;;;;2610554;54;20423;-77
2022/03/31 08:48:57;;;;;;;24.63;15.53;;;7.10;99.90;;;;;;2609942;54;20452;-77
2022/03/31 08:51:24;;;;;;;22.87;13.63;;;7.10;99.90;;;;;;2610698;47;20397;-75
2022/03/31 08:53:50;;;;;;;28.90;16.43;;;7.10;99.90;;;;;;2611146;39;21071;-78
2022/03/31 08:56:16;;;;;;;26.87;14.97;;;7.10;99.90;;;;;;2610964;54;20396;-78
2022/03/31 08:58:46;;;;;;;18.47;12.87;;;7.20;99.90;;;;;;2608217;54;20153;-75
2022/03/31 09:01:16;;;;;;;19.83;14.40;;;7.10;99.90;;;;;;2609025;54;20389;-77
2022/03/31 09:03:43;;;;;;;24.83;14.37;;;7.00;99.90;;;;;;2608168;39;20792;-76
2022/03/31 09:06:21;;;;;;;22.70;14.20;;;7.00;99.90;;;;;;2609561;54;20520;-77
2022/03/31 09:08:57;;;;;;;19.63;14.67;;;7.20;99.90;;;;;;2608409;54;21047;-76
2022/03/31 09:11:31;;;;;;;19.50;14.90;;;7.50;99.90;;;;;;2611283;54;20451;-76
2022/03/31 09:13:59;;;;;;;19.47;15.33;;;7.60;99.90;;;;;;2610895;54;20994;-76
2022/03/31 09:16:38;;;;;;;21.37;15.53;;;7.90;99.90;;;;;;2608695;39;20898;-74
2022/03/31 09:19:15;;;;;;;20.10;15.50;;;8.10;99.90;;;;;;2609763;54;20410;-76
2022/03/31 09:21:57;;;;;;;18.80;15.13;;;8.20;99.90;;;;;;2610813;54;20438;-75
2022/03/31 09:24:26;;;;;;;27.03;15.10;;;8.20;99.90;;;;;;2610934;54;20407;-76
2022/03/31 09:26:53;;;;;;;22.37;16.00;;;8.20;99.90;;;;;;2611160;54;20422;-75
2022/03/31 09:29:23;;;;;;;22.83;15.97;;;8.20;99.90;;;;;;2608872;49;20997;-75
2022/03/31 09:31:51;;;;;;;18.33;14.30;;;8.30;99.90;;;;;;2609912;47;20415;-76
2022/03/31 09:34:18;;;;;;;26.73;17.50;;;8.20;99.90;;;;;;2610797;54;20940;-76
2022/03/31 09:36:52;;;;;;;25.80;14.60;;;8.10;99.90;;;;;;2609619;47;20496;-75
2022/03/31 09:39:19;;;;;;;21.40;14.70;;;8.20;99.90;;;;;;2610436;39;20798;-76
2022/03/31 09:41:47;;;;;;;27.87;15.23;;;8.30;99.90;;;;;;2609414;54;20440;-75
2022/03/31 09:44:15;;;;;;;19.00;15.20;;;8.10;99.90;;;;;;2609045;54;20398;-76
2022/03/31 09:46:42;;;;;;;18.70;13.80;;;7.90;99.90;;;;;;2610910;54;20534;-75
2022/03/31 09:49:28;;;;;;;18.30;13.77;;;7.80;99.90;;;;;;2611248;54;20515;-75
2022/03/31 09:51:56;;;;;;;18.70;13.23;;;7.70;99.90;;;;;;2610051;54;20410;-74
2022/03/31 09:54:25;;;;;;;23.53;15.77;;;7.60;99.90;;;;;;2611047;54;20420;-75
2022/03/31 09:56:51;;;;;;;22.33;16.07;;;7.60;99.90;;;;;;2611938;54;20548;-76
2022/03/31 09:59:17;;;;;;;20.70;15.83;;;7.70;99.90;;;;;;2610856;54;20469;-75
2022/03/31 10:01:44;;;;;;;24.93;15.80;;;7.90;99.90;;;;;;2611305;54;20414;-75
2022/03/31 10:04:12;;;;;;;23.33;16.63;;;8.00;99.90;;;;;;2611674;54;20414;-75
2022/03/31 10:06:42;;;;;;;23.30;16.87;;;8.00;99.90;;;;;;2609500;47;20422;-75
2022/03/31 10:09:12;;;;;;;27.40;17.43;;;8.10;99.90;;;;;;2611522;46;20454;-75
2022/03/31 10:11:50;;;;;;;23.87;16.30;;;8.10;99.90;;;;;;2609542;54;20435;-75
2022/03/31 10:14:40;;;;;;;23.13;16.47;;;8.00;99.90;;;;;;2611412;54;20453;-75
2022/03/31 10:17:10;;;;;;;24.30;16.00;;;7.90;99.90;;;;;;2611150;54;20492;-76
2022/03/31 10:19:42;;;;;;;25.13;17.60;;;7.80;99.90;;;;;;2610753;54;20435;-75
2022/03/31 10:25:14;;;;;;;25.53;17.20;;;7.80;99.90;;;;;;2610946;54;20393;-75
2022/03/31 10:27:45;;;;;;;24.47;16.80;;;7.90;99.90;;;;;;2611758;54;20457;-75
2022/03/31 10:30:19;;;;;;;22.00;16.20;;;7.90;99.90;;;;;;2611384;54;20415;-75
2022/03/31 10:32:57;;;;;;;23.23;18.10;;;7.90;99.90;;;;;;2612485;54;20433;-75
2022/03/31 10:35:44;;;;;;;38.47;20.27;;;8.00;99.90;;;;;;2611574;54;20504;-75
2022/03/31 10:38:23;;;;;;;30.10;18.17;;;8.00;99.90;;;;;;2610068;54;20464;-75
2022/03/31 10:41:00;;;;;;;26.80;18.40;;;8.10;99.90;;;;;;2612012;47;21053;-74
2022/03/31 10:43:29;;;;;;;26.67;19.27;;;7.90;99.90;;;;;;2611402;54;20446;-75
2022/03/31 10:45:56;;;;;;;27.33;17.87;;;7.80;99.90;;;;;;2612162;39;20790;-75
2022/03/31 10:48:26;;;;;;;23.33;17.43;;;7.80;99.90;;;;;;2611629;54;20433;-76
2022/03/31 10:51:07;;;;;;;26.50;17.57;;;7.70;99.90;;;;;;2610841;54;21103;-75
2022/03/31 10:53:36;;;;;;;31.57;19.53;;;7.60;99.90;;;;;;2611732;54;20395;-75
2022/03/31 10:56:14;;;;;;;26.20;18.50;;;7.70;99.90;;;;;;2611185;54;22755;-76
2022/03/31 10:58:41;;;;;;;26.40;17.50;;;7.70;99.90;;;;;;2611363;54;20431;-75
2022/03/31 11:01:07;;;;;;;27.90;17.87;;;7.70;99.90;;;;;;2612199;54;20459;-75
2022/03/31 11:03:35;;;;;;;29.67;19.80;;;7.80;99.90;;;;;;2610907;54;20429;-75
2022/03/31 11:06:05;;;;;;;22.70;18.10;;;7.80;99.90;;;;;;2609533;54;20403;-77
2022/03/31 11:08:40;;;;;;;26.50;19.20;;;7.80;99.90;;;;;;2612123;54;20407;-77
2022/03/31 11:11:06;;;;;;;28.57;19.70;;;7.80;99.90;;;;;;2611609;54;20415;-76
2022/03/31 11:13:35;;;;;;;36.70;21.00;;;7.70;99.90;;;;;;2610831;39;20812;-76
2022/03/31 11:16:01;;;;;;;29.13;21.50;;;7.70;99.90;;;;;;2611241;47;20556;-76
2022/03/31 11:18:27;;;;;;;32.50;20.97;;;7.80;99.90;;;;;;2612107;54;22515;-76
2022/03/31 11:20:58;;;;;;;33.73;22.70;;;7.70;99.90;;;;;;2609748;54;20459;-76
2022/03/31 11:23:26;;;;;;;30.23;19.50;;;7.50;99.90;;;;;;2608960;54;20433;-75
2022/03/31 11:25:53;;;;;;;28.97;21.30;;;7.60;99.90;;;;;;2608904;54;20594;-77
2022/03/31 11:28:19;;;;;;;34.20;20.77;;;7.60;99.90;;;;;;2610382;54;20444;-76
2022/03/31 11:30:48;;;;;;;33.60;21.90;;;7.60;99.90;;;;;;2609249;47;20418;-76
2022/03/31 11:33:14;;;;;;;38.40;23.13;;;7.60;99.90;;;;;;2609934;51;20436;-76
2022/03/31 11:35:41;;;;;;;36.10;23.30;;;7.70;99.90;;;;;;2611075;54;20404;-75
2022/03/31 11:38:14;;;;;;;41.97;21.40;;;7.70;99.90;;;;;;2610502;54;20427;-76
2022/03/31 11:40:44;;;;;;;29.57;21.50;;;7.80;99.90;;;;;;2609104;47;20452;-76
2022/03/31 11:43:18;;;;;;;33.60;23.03;;;7.90;99.90;;;;;;2609368;47;20981;-76
2022/03/31 11:45:50;;;;;;;31.50;21.10;;;8.00;99.90;;;;;;2610065;54;20419;-76
2022/03/31 11:48:18;;;;;;;28.47;21.17;;;8.10;99.90;;;;;;2610844;47;20455;-76
2022/03/31 11:50:56;;;;;;;34.60;22.23;;;8.20;99.90;;;;;;2609113;54;21090;-76
2022/03/31 11:53:47;;;;;;;28.67;21.80;;;8.30;99.90;;;;;;2611766;54;21499;-77
2022/03/31 11:56:26;;;;;;;29.77;20.37;;;8.30;99.90;;;;;;2610312;54;20469;-76
2022/03/31 11:58:52;;;;;;;27.63;21.13;;;8.30;99.90;;;;;;2610861;54;20527;-76
2022/03/31 12:01:30;;;;;;;36.50;21.33;;;8.40;99.90;;;;;;2609306;54;20427;-77
2022/03/31 12:03:56;;;;;;;32.37;21.30;;;8.40;99.90;;;;;;2610325;54;20429;-77
2022/03/31 12:06:22;;;;;;;34.47;23.47;;;8.20;99.90;;;;;;2609868;54;20415;-76
2022/03/31 12:08:48;;;;;;;31.50;20.53;;;8.20;99.90;;;;;;2607980;51;20663;-77
2022/03/31 12:11:15;;;;;;;31.87;21.00;;;8.30;99.90;;;;;;2610418;39;20950;-77
2022/03/31 12:13:53;;;;;;;32.30;22.13;;;8.30;99.90;;;;;;2609893;39;20590;-76
2022/03/31 12:16:21;;;;;;;27.20;20.70;;;8.30;99.90;;;;;;2611472;54;20448;-78
2022/03/31 12:18:58;;;;;;;31.67;22.07;;;8.50;99.90;;;;;;2611020;54;20426;-78
2022/03/31 12:21:26;;;;;;;37.23;22.73;;;8.60;99.90;;;;;;2608681;54;21032;-77
2022/03/31 12:23:57;;;;;;;35.10;22.63;;;8.50;99.90;;;;;;2610984;46;20447;-77
2022/03/31 12:26:23;;;;;;;33.53;21.30;;;8.50;99.90;;;;;;2607691;54;20410;-77
2022/03/31 12:28:50;;;;;;;34.83;23.90;;;8.60;99.90;;;;;;2610634;54;20417;-78
2022/03/31 12:31:26;;;;;;;28.90;20.87;;;8.50;99.90;;;;;;2610411;54;20161;-78
2022/03/31 12:33:53;;;;;;;36.60;22.70;;;8.50;99.90;;;;;;2611986;54;20463;-77
2022/03/31 12:36:26;;;;;;;33.23;21.20;;;8.60;99.90;;;;;;2610316;54;20431;-78
2022/03/31 12:38:54;;;;;;;28.93;21.00;;;8.40;99.90;;;;;;2608803;39;20717;-77
2022/03/31 12:41:33;;;;;;;31.80;20.80;;;8.30;99.90;;;;;;2611195;54;20432;-77
2022/03/31 12:44:04;;;;;;;34.57;19.53;;;8.20;99.90;;;;;;2610918;47;20430;-78
2022/03/31 12:46:37;;;;;;;29.47;21.50;;;8.30;99.90;;;;;;2610011;47;20438;-77
2022/03/31 12:49:08;;;;;;;31.67;22.30;;;8.40;99.90;;;;;;2611186;47;20417;-79
2022/03/31 12:51:59;;;;;;;28.43;20.60;;;8.40;99.90;;;;;;2608735;46;20456;-78